createdAt,value
2023-04-10T10:02:41.361Z,7776.00
2023-04-10T10:03:41.897Z,7732.00
2023-04-10T10:04:41.881Z,7744.00
2023-04-10T10:05:41.899Z,7864.00
2023-04-10T10:06:41.841Z,7788.00
2023-04-10T10:07:41.886Z,7784.00
2023-04-10T10:08:41.820Z,7828.00
2023-04-10T10:09:41.814Z,7720.00
2023-04-10T10:10:41.785Z,7676.00
2023-04-10T10:11:41.820Z,7580.00
2023-04-10T10:12:41.774Z,7620.00
2023-04-10T10:13:41.802Z,7596.00
2023-04-10T10:14:41.750Z,7720.00
2023-04-10T10:15:41.774Z,7660.00
2023-04-10T10:16:41.888Z,7584.00
2023-04-10T10:17:41.789Z,7552.00
2023-04-10T10:18:41.748Z,7408.00
2023-04-10T10:19:41.688Z,7596.00
2023-04-10T10:20:41.720Z,7624.00
2023-04-10T10:21:41.684Z,7628.00
2023-04-10T10:22:41.676Z,7652.00
2023-04-10T10:23:41.664Z,7620.00
2023-04-10T10:24:41.657Z,7668.00
2023-04-10T10:25:41.643Z,7784.00
2023-04-10T10:26:41.613Z,7616.00
2023-04-10T10:27:41.628Z,7736.00
2023-04-10T10:28:41.627Z,7656.00
2023-04-10T10:29:41.564Z,7572.00
2023-04-10T10:30:41.588Z,7476.00
2023-04-10T10:31:41.603Z,7504.00
2023-04-10T10:32:41.589Z,7492.00
2023-04-10T10:33:41.572Z,7596.00
2023-04-10T10:34:41.538Z,7736.00
2023-04-10T10:35:41.540Z,7896.00
2023-04-10T10:36:41.605Z,8056.00
2023-04-10T10:37:41.490Z,8324.00
2023-04-10T10:38:41.542Z,8392.00
2023-04-10T10:39:41.470Z,8384.00
2023-04-10T10:40:41.509Z,8580.00
2023-04-10T10:41:41.451Z,8712.00
2023-04-10T10:42:41.525Z,8780.00
2023-04-10T10:43:41.499Z,8696.00
2023-04-10T10:44:41.446Z,8416.00
2023-04-10T10:45:41.456Z,7668.00
2023-04-10T10:46:41.385Z,7828.00
2023-04-10T10:47:41.527Z,7436.00
2023-04-10T10:48:41.447Z,7100.00
2023-04-10T10:49:41.371Z,7160.00
2023-04-10T10:50:41.376Z,7064.00
2023-04-10T10:51:41.331Z,7052.00
2023-04-10T10:52:41.332Z,7112.00
2023-04-10T10:53:41.351Z,7236.00
2023-04-10T10:54:47.330Z,7396.00
2023-04-10T10:55:41.349Z,7520.00
2023-04-10T10:56:41.319Z,7604.00
2023-04-10T10:57:41.300Z,7548.00
2023-04-10T10:58:41.293Z,7508.00
2023-04-10T10:59:41.259Z,7608.00
2023-04-10T11:00:41.305Z,7748.00
2023-04-10T11:01:41.396Z,8128.00
2023-04-10T11:02:41.361Z,8308.00
2023-04-10T11:03:41.276Z,8416.00
2023-04-10T11:04:41.198Z,8500.00
2023-04-10T11:05:41.186Z,8420.00
2023-04-10T11:06:42.868Z,8300.00
2023-04-10T11:07:41.142Z,7968.00
2023-04-10T11:08:41.177Z,8088.00
2023-04-10T11:09:41.143Z,7892.00
2023-04-10T11:10:41.141Z,7520.00
2023-04-10T11:11:41.116Z,7248.00
2023-04-10T11:12:41.119Z,7076.00
2023-04-10T11:13:41.145Z,6976.00
2023-04-10T11:14:41.146Z,6972.00
2023-04-10T11:15:41.071Z,7040.00
2023-04-10T11:16:41.168Z,7164.00
2023-04-10T11:17:41.074Z,7248.00
2023-04-10T11:18:41.068Z,7172.00
2023-04-10T11:19:41.011Z,7292.00
2023-04-10T11:20:41.012Z,7148.00
2023-04-10T11:21:40.984Z,7348.00
2023-04-10T11:22:40.992Z,7504.00
2023-04-10T11:23:41.011Z,7824.00
2023-04-10T11:24:41.058Z,8036.00
2023-04-10T11:25:40.969Z,8072.00
2023-04-10T11:26:40.958Z,8288.00
2023-04-10T11:27:40.962Z,8288.00
2023-04-10T11:28:40.993Z,8164.00
2023-04-10T11:29:40.932Z,7988.00
2023-04-10T11:30:40.888Z,7860.00
2023-04-10T11:31:40.889Z,7636.00
2023-04-10T11:32:40.948Z,7476.00
2023-04-10T11:33:40.854Z,7452.00
2023-04-10T11:34:40.853Z,7652.00
2023-04-10T11:35:40.870Z,8100.00
2023-04-10T11:36:40.873Z,8212.00
2023-04-10T11:37:40.833Z,7960.00
2023-04-10T11:38:40.820Z,7844.00
2023-04-10T11:39:40.790Z,7896.00
2023-04-10T11:40:40.762Z,7756.00
2023-04-10T11:41:40.759Z,7676.00
2023-04-10T11:42:40.815Z,7716.00
2023-04-10T11:43:40.868Z,7676.00
2023-04-10T11:44:41.512Z,7680.00
2023-04-10T11:45:40.737Z,7676.00
2023-04-10T11:46:40.691Z,7636.00
2023-04-10T11:47:40.730Z,7564.00
2023-04-10T11:48:40.715Z,7488.00
2023-04-10T11:49:40.703Z,7544.00
2023-04-10T11:50:40.661Z,7820.00
2023-04-10T11:51:40.667Z,7800.00
2023-04-10T11:52:40.753Z,7772.00
2023-04-10T11:53:40.662Z,7632.00
2023-04-10T11:54:40.675Z,7560.00
2023-04-10T11:55:40.611Z,7420.00
2023-04-10T11:56:40.612Z,7288.00
2023-04-10T11:57:40.567Z,7288.00
2023-04-10T11:58:40.624Z,7548.00
2023-04-10T11:59:40.620Z,7584.00
2023-04-10T12:00:40.567Z,7672.00
2023-04-10T12:01:42.716Z,7724.00
2023-04-10T12:02:40.777Z,7700.00
2023-04-10T12:03:40.682Z,7648.00
2023-04-10T12:04:40.684Z,7608.00
2023-04-10T12:05:40.543Z,7488.00
2023-04-10T12:06:40.511Z,7584.00
2023-04-10T12:07:40.478Z,7508.00
2023-04-10T12:08:40.600Z,7412.00
2023-04-10T12:09:40.459Z,7100.00
2023-04-10T12:10:40.579Z,6948.00
2023-04-10T12:11:40.940Z,7088.00
2023-04-10T12:12:40.449Z,7012.00
2023-04-10T12:13:40.455Z,7052.00
2023-04-10T12:14:40.381Z,7240.00
2023-04-10T12:15:40.421Z,7204.00
2023-04-10T12:16:40.387Z,7296.00
2023-04-10T12:17:40.366Z,7320.00
2023-04-10T12:18:40.413Z,7400.00
2023-04-10T12:19:40.333Z,7640.00
2023-04-10T12:20:40.363Z,7824.00
2023-04-10T12:21:40.286Z,7724.00
2023-04-10T12:22:40.329Z,7616.00
2023-04-10T12:23:40.281Z,7512.00
2023-04-10T12:24:40.331Z,7540.00
2023-04-10T12:25:40.268Z,7740.00
2023-04-10T12:26:40.262Z,7680.00
2023-04-10T12:27:40.246Z,7544.00
2023-04-10T12:28:40.255Z,7544.00
2023-04-10T12:29:40.273Z,7464.00
2023-04-10T12:30:40.214Z,7616.00
2023-04-10T12:31:40.351Z,7872.00
2023-04-10T12:32:40.260Z,7836.00
2023-04-10T12:33:40.287Z,8036.00
2023-04-10T12:34:40.202Z,7872.00
2023-04-10T12:35:40.211Z,8040.00
2023-04-10T12:36:40.185Z,7896.00
2023-04-10T12:37:40.156Z,7780.00
2023-04-10T12:38:40.113Z,7720.00
2023-04-10T12:39:40.126Z,7668.00
2023-04-10T12:40:40.152Z,7160.00
2023-04-10T12:41:40.085Z,7864.00
2023-04-10T12:42:40.111Z,7940.00
2023-04-10T12:43:40.100Z,8084.00
2023-04-10T12:44:40.084Z,8100.00
2023-04-10T12:45:40.068Z,7928.00
2023-04-10T12:46:40.127Z,8000.00
2023-04-10T12:47:40.118Z,8068.00
2023-04-10T12:48:40.010Z,7952.00
2023-04-10T12:49:40.049Z,7800.00
2023-04-10T12:50:40.028Z,7996.00
2023-04-10T12:51:39.998Z,7852.00
2023-04-10T12:52:39.945Z,8028.00
2023-04-10T12:53:39.966Z,8012.00
2023-04-10T12:54:39.947Z,7080.00
2023-04-10T12:55:39.944Z,7280.00
2023-04-10T12:56:39.918Z,7300.00
2023-04-10T12:57:39.960Z,7020.00
2023-04-10T12:58:39.960Z,6664.00
2023-04-10T12:59:39.965Z,6208.00
2023-04-10T13:00:39.876Z,6584.00
2023-04-10T13:01:39.958Z,6324.00
2023-04-10T13:02:40.177Z,6524.00
2023-04-10T13:03:39.970Z,6564.00
2023-04-10T13:04:40.005Z,6812.00
2023-04-10T13:05:39.820Z,7040.00
2023-04-10T13:06:39.794Z,6720.00
2023-04-10T13:07:39.850Z,6632.00
2023-04-10T13:08:39.835Z,6748.00
2023-04-10T13:09:39.785Z,7420.00
2023-04-10T13:10:39.809Z,7544.00
2023-04-10T13:11:39.766Z,7436.00
2023-04-10T13:12:39.755Z,7184.00
2023-04-10T13:13:39.732Z,6912.00
2023-04-10T13:14:39.726Z,7316.00
2023-04-10T13:15:39.709Z,6816.00
2023-04-10T13:16:39.760Z,6704.00
2023-04-10T13:17:39.748Z,6988.00
2023-04-10T13:18:39.666Z,7184.00
2023-04-10T13:19:39.692Z,7552.00
2023-04-10T13:20:39.663Z,7532.00
2023-04-10T13:21:39.683Z,7604.00
2023-04-10T13:22:39.645Z,6488.00
2023-04-10T13:23:39.631Z,7540.00
2023-04-10T13:24:39.618Z,6488.00
2023-04-10T13:25:39.768Z,6860.00
2023-04-10T13:26:39.572Z,6608.00
2023-04-10T13:27:39.557Z,6900.00
2023-04-10T13:28:39.598Z,6720.00
2023-04-10T13:29:40.724Z,5416.00
2023-04-10T13:30:39.539Z,7544.00
2023-04-10T13:31:39.563Z,5660.00
2023-04-10T13:32:39.586Z,7732.00
2023-04-10T13:33:39.553Z,7864.00
2023-04-10T13:34:39.569Z,7384.00
2023-04-10T13:35:39.482Z,7484.00
2023-04-10T13:36:39.526Z,7848.00
2023-04-10T13:37:39.459Z,7236.00
2023-04-10T13:38:39.439Z,7880.00
2023-04-10T13:39:39.472Z,6552.00
2023-04-10T13:40:39.436Z,7872.00
2023-04-10T13:41:39.405Z,6120.00
2023-04-10T13:42:41.926Z,5828.00
2023-04-10T13:43:39.428Z,5784.00
2023-04-10T13:44:39.620Z,5688.00
2023-04-10T13:45:39.392Z,5740.00
2023-04-10T13:46:39.440Z,5756.00
2023-04-10T13:47:39.389Z,5780.00
2023-04-10T13:48:40.761Z,5760.00
2023-04-10T13:49:39.318Z,5728.00
2023-04-10T13:50:39.337Z,5676.00
2023-04-10T13:51:39.309Z,5680.00
2023-04-10T13:52:39.338Z,5692.00
2023-04-10T13:53:39.283Z,5740.00
2023-04-10T13:54:39.391Z,5792.00
2023-04-10T13:55:39.277Z,5852.00
2023-04-10T13:56:39.259Z,5884.00
2023-04-10T13:57:39.252Z,5896.00
2023-04-10T13:58:40.089Z,5948.00
2023-04-10T13:59:39.592Z,5920.00
2023-04-10T14:00:39.245Z,5928.00
2023-04-10T14:01:39.224Z,5852.00
2023-04-10T14:02:39.265Z,5724.00
2023-04-10T14:03:39.325Z,5552.00
2023-04-10T14:04:39.210Z,5344.00
2023-04-10T14:05:39.177Z,5128.00
2023-04-10T14:06:39.183Z,4892.00
2023-04-10T14:07:39.184Z,4644.00
2023-04-10T14:08:39.136Z,4392.00
2023-04-10T14:09:39.131Z,4132.00
2023-04-10T14:10:39.123Z,3840.00
2023-04-10T14:11:39.105Z,3576.00
2023-04-10T14:12:39.057Z,3356.00
2023-04-10T14:13:39.094Z,3192.00
2023-04-10T14:14:39.100Z,3140.00
2023-04-10T14:15:39.061Z,3196.00
2023-04-10T14:16:39.075Z,3340.00
2023-04-10T14:17:39.018Z,3492.00
2023-04-10T14:18:39.003Z,3640.00
2023-04-10T14:19:39.137Z,3748.00
2023-04-10T14:20:38.976Z,3768.00
2023-04-10T14:21:38.975Z,3696.00
2023-04-10T14:22:38.987Z,3568.00
2023-04-10T14:23:38.939Z,3392.00
2023-04-10T14:24:39.124Z,3176.00
2023-04-10T14:25:38.981Z,2952.00
2023-04-10T14:26:38.922Z,2740.00
2023-04-10T14:27:38.955Z,2580.00
2023-04-10T14:28:38.905Z,2480.00
2023-04-10T14:29:44.738Z,2444.00
2023-04-10T14:30:38.916Z,2448.00
2023-04-10T14:31:50.530Z,2468.00
2023-04-10T14:32:38.921Z,2516.00
2023-04-10T14:33:38.858Z,2580.00
2023-04-10T14:34:38.860Z,2612.00
2023-04-10T14:35:39.642Z,2632.00
2023-04-10T14:36:38.814Z,2628.00
2023-04-10T14:37:38.851Z,2620.00
2023-04-10T14:38:38.788Z,2600.00
2023-04-10T14:39:38.850Z,2588.00
2023-04-10T14:40:38.788Z,2596.00
2023-04-10T14:41:38.748Z,2600.00
2023-04-10T14:42:38.776Z,2584.00
2023-04-10T14:43:38.723Z,2564.00
2023-04-10T14:44:38.741Z,2532.00
2023-04-10T14:45:38.689Z,2504.00
2023-04-10T14:46:38.692Z,2492.00
2023-04-10T14:47:38.752Z,2504.00
2023-04-10T14:48:38.714Z,2512.00
2023-04-10T14:49:38.729Z,2512.00
2023-04-10T14:50:38.656Z,2512.00
2023-04-10T14:51:38.656Z,2512.00
2023-04-10T14:52:38.610Z,2500.00
2023-04-10T14:53:38.661Z,2476.00
2023-04-10T14:54:38.715Z,2448.00
2023-04-10T14:55:38.600Z,2412.00
2023-04-10T14:56:38.575Z,2368.00
2023-04-10T14:57:38.618Z,2328.00
2023-04-10T14:58:39.109Z,2276.00
2023-04-10T14:59:38.608Z,2228.00
2023-04-10T15:00:38.540Z,2168.00
2023-04-10T15:01:38.593Z,2104.00
2023-04-10T15:02:38.674Z,2032.00
2023-04-10T15:03:38.666Z,1980.00
2023-04-10T15:04:38.582Z,1956.00
2023-04-10T15:05:38.568Z,1940.00
2023-04-10T15:06:38.499Z,1956.00
2023-04-10T15:07:38.458Z,1984.00
2023-04-10T15:08:38.469Z,2028.00
2023-04-10T15:09:38.472Z,2072.00
2023-04-10T15:10:38.426Z,2112.00
2023-04-10T15:11:38.457Z,2148.00
2023-04-10T15:12:38.430Z,2144.00
2023-04-10T15:13:38.382Z,2128.00
2023-04-10T15:14:38.416Z,2104.00
2023-04-10T15:15:38.395Z,2036.00
2023-04-10T15:16:38.396Z,1948.00
2023-04-10T15:17:38.350Z,1856.00
2023-04-10T15:18:38.328Z,1744.00
2023-04-10T15:19:38.338Z,1636.00
2023-04-10T15:20:38.318Z,1536.00
2023-04-10T15:21:38.306Z,1448.00
2023-04-10T15:22:38.295Z,1380.00
2023-04-10T15:23:38.252Z,1304.00
2023-04-10T15:24:50.053Z,1220.00
2023-04-10T15:25:38.282Z,1144.00
2023-04-10T15:26:38.217Z,1104.00
2023-04-10T15:27:38.227Z,1072.00
2023-04-10T15:28:38.182Z,1072.00
2023-04-10T15:29:38.259Z,1084.00
2023-04-10T15:30:38.276Z,1116.00
2023-04-10T15:31:38.186Z,1176.00
2023-04-10T15:32:38.305Z,1232.00
2023-04-10T15:33:38.138Z,1292.00
2023-04-10T15:34:38.167Z,1384.00
2023-04-10T15:35:38.190Z,1456.00
2023-04-10T15:36:38.155Z,1504.00
2023-04-10T15:37:38.104Z,1528.00
2023-04-10T15:38:38.089Z,1492.00
2023-04-10T15:39:38.107Z,1436.00
2023-04-10T15:40:38.058Z,1364.00
2023-04-10T15:41:38.125Z,1288.00
2023-04-10T15:42:38.051Z,1232.00
2023-04-10T15:43:38.070Z,1196.00
2023-04-10T15:44:38.019Z,1148.00
2023-04-10T15:45:38.082Z,1100.00
2023-04-10T15:46:38.635Z,1076.00
2023-04-10T15:47:38.168Z,1104.00
2023-04-10T15:48:37.978Z,1148.00
2023-04-10T15:49:38.872Z,1224.00
2023-04-10T15:50:37.944Z,1320.00
2023-04-10T15:51:37.956Z,1440.00
2023-04-10T15:52:37.977Z,1592.00
2023-04-10T15:53:37.908Z,1776.00
2023-04-10T15:54:37.889Z,1932.00
2023-04-10T15:55:37.925Z,2032.00
2023-04-10T15:56:37.928Z,2068.00
2023-04-10T15:57:37.868Z,2020.00
2023-04-10T15:58:37.871Z,1892.00
2023-04-10T15:59:37.979Z,1800.00
2023-04-10T16:00:38.598Z,1684.00
2023-04-10T16:01:37.935Z,1568.00
2023-04-10T16:02:37.952Z,1476.00
2023-04-10T16:03:38.017Z,1424.00
2023-04-10T16:04:37.878Z,1416.00
2023-04-10T16:05:37.774Z,1416.00
2023-04-10T16:06:37.770Z,1408.00
2023-04-10T16:07:37.747Z,1372.00
2023-04-10T16:08:37.758Z,1320.00
2023-04-10T16:09:37.752Z,1256.00
2023-04-10T16:10:37.741Z,1188.00
2023-04-10T16:11:37.691Z,1100.00
2023-04-10T16:12:37.694Z,1016.00
2023-04-10T16:13:39.894Z,952.00
2023-04-10T16:14:38.138Z,908.00
2023-04-10T16:15:37.748Z,896.00
2023-04-10T16:16:37.629Z,900.00
2023-04-10T16:17:37.655Z,916.00
2023-04-10T16:18:37.639Z,944.00
2023-04-10T16:19:37.619Z,980.00
2023-04-10T16:20:37.660Z,996.00
2023-04-10T16:21:37.591Z,1000.00
2023-04-10T16:22:37.610Z,1000.00
2023-04-10T16:23:37.563Z,996.00
2023-04-10T16:24:37.606Z,992.00
2023-04-10T16:25:37.552Z,972.00
2023-04-10T16:26:37.545Z,952.00
2023-04-10T16:27:37.538Z,932.00
2023-04-10T16:28:37.498Z,916.00
2023-04-10T16:29:37.552Z,904.00
2023-04-10T16:30:37.491Z,916.00
2023-04-10T16:31:37.549Z,916.00
2023-04-10T16:32:37.514Z,896.00
2023-04-10T16:33:37.474Z,884.00
2023-04-10T16:34:37.491Z,876.00
2023-04-10T16:35:37.456Z,896.00
2023-04-10T16:36:37.437Z,952.00
2023-04-10T16:37:37.406Z,996.00
2023-04-10T16:38:37.416Z,1036.00
2023-04-10T16:39:37.428Z,1076.00
2023-04-10T16:40:37.418Z,1124.00
2023-04-10T16:41:37.377Z,1180.00
2023-04-10T16:42:37.345Z,1228.00
2023-04-10T16:43:37.353Z,1264.00
2023-04-10T16:44:37.356Z,1300.00
2023-04-10T16:45:37.335Z,1312.00
2023-04-10T16:46:37.325Z,1300.00
2023-04-10T16:47:37.349Z,1244.00
2023-04-10T16:48:37.273Z,1164.00
2023-04-10T16:49:37.311Z,1044.00
2023-04-10T16:50:37.281Z,900.00
2023-04-10T16:51:37.303Z,800.00
2023-04-10T16:52:37.264Z,740.00
2023-04-10T16:53:37.216Z,716.00
2023-04-10T16:54:37.233Z,684.00
2023-04-10T16:55:37.203Z,656.00
2023-04-10T16:56:37.195Z,640.00
2023-04-10T16:57:37.209Z,624.00
2023-04-10T16:58:37.177Z,608.00
2023-04-10T16:59:37.229Z,592.00
2023-04-10T17:00:37.189Z,572.00
2023-04-10T17:01:37.277Z,560.00
2023-04-10T17:02:37.210Z,548.00
2023-04-10T17:03:37.178Z,528.00
2023-04-10T17:04:37.682Z,488.00
2023-04-10T17:05:37.092Z,452.00
2023-04-10T17:06:37.080Z,436.00
2023-04-10T17:07:37.100Z,436.00
2023-04-10T17:08:37.062Z,436.00
2023-04-10T17:09:37.098Z,428.00
2023-04-10T17:10:37.079Z,416.00
2023-04-10T17:11:37.013Z,404.00
2023-04-10T17:12:37.062Z,388.00
2023-04-10T17:13:37.088Z,376.00
2023-04-10T17:14:37.156Z,372.00
2023-04-10T17:15:36.990Z,360.00
2023-04-10T17:16:37.004Z,372.00
2023-04-10T17:17:37.031Z,384.00
2023-04-10T17:18:36.973Z,392.00
2023-04-10T17:19:36.985Z,396.00
2023-04-10T17:20:36.992Z,404.00
2023-04-10T17:21:37.478Z,408.00
2023-04-10T17:22:36.918Z,420.00
2023-04-10T17:23:36.921Z,432.00
2023-04-10T17:24:36.935Z,452.00
2023-04-10T17:25:36.917Z,464.00
2023-04-10T17:26:36.849Z,460.00
2023-04-10T17:27:39.748Z,440.00
2023-04-10T17:28:36.860Z,432.00
2023-04-10T17:29:37.131Z,400.00
2023-04-10T17:30:36.846Z,372.00
2023-04-10T17:31:36.837Z,352.00
2023-04-10T17:32:36.838Z,328.00
2023-04-10T17:33:36.785Z,296.00
2023-04-10T17:34:36.811Z,268.00
2023-04-10T17:35:36.892Z,244.00
2023-04-10T17:36:36.741Z,220.00
2023-04-10T17:37:36.781Z,212.00
2023-04-10T17:38:36.743Z,200.00
2023-04-10T17:39:36.738Z,208.00
2023-04-10T17:40:36.699Z,220.00
2023-04-10T17:41:36.669Z,224.00
2023-04-10T17:42:36.709Z,224.00
2023-04-10T17:43:36.743Z,212.00
2023-04-10T17:44:36.732Z,200.00
2023-04-10T17:45:36.656Z,180.00
2023-04-10T17:46:36.688Z,148.00
2023-04-10T17:47:36.670Z,120.00
2023-04-10T17:48:36.735Z,96.00
2023-04-10T17:49:36.635Z,88.00
2023-04-10T17:50:36.587Z,88.00
2023-04-10T17:51:36.558Z,88.00
2023-04-10T17:52:36.550Z,88.00
2023-04-10T17:53:36.534Z,92.00
2023-04-10T17:54:36.558Z,84.00
2023-04-10T17:55:36.505Z,80.00
2023-04-10T17:56:36.525Z,76.00
2023-04-10T17:57:36.480Z,68.00
2023-04-10T17:58:36.495Z,68.00
2023-04-10T17:59:36.481Z,60.00
2023-04-10T18:00:36.459Z,56.00
2023-04-10T18:01:36.507Z,48.00
2023-04-10T18:02:36.522Z,44.00
2023-04-10T18:03:36.492Z,44.00
2023-04-10T18:04:36.440Z,48.00
2023-04-10T18:05:36.428Z,44.00
2023-04-10T18:06:36.386Z,40.00
2023-04-10T18:07:36.373Z,36.00
2023-04-10T18:08:36.377Z,36.00
2023-04-10T18:09:36.372Z,28.00
2023-04-10T18:10:36.342Z,20.00
2023-04-10T18:11:36.326Z,16.00
2023-04-10T18:12:36.329Z,12.00
2023-04-10T18:13:36.333Z,12.00
2023-04-10T18:14:36.319Z,12.00
2023-04-10T18:15:36.280Z,12.00
2023-04-10T18:16:36.320Z,12.00
2023-04-10T18:17:39.195Z,12.00
2023-04-10T18:18:36.251Z,8.00
2023-04-10T18:19:36.246Z,8.00
2023-04-10T18:20:36.237Z,8.00
2023-04-10T18:21:36.211Z,8.00
2023-04-10T18:22:36.206Z,4.00
2023-04-10T18:23:36.194Z,4.00
2023-04-10T18:24:36.201Z,8.00
2023-04-10T18:25:36.164Z,8.00
2023-04-10T18:26:36.176Z,4.00
2023-04-10T18:27:36.167Z,4.00
2023-04-10T18:28:36.133Z,4.00
2023-04-10T18:29:36.146Z,4.00
2023-04-10T18:30:36.181Z,4.00
2023-04-10T18:31:36.109Z,4.00
2023-04-10T18:32:36.201Z,0.00
2023-04-10T18:33:36.272Z,0.00
2023-04-10T18:34:36.097Z,4.00
2023-04-10T18:35:36.078Z,4.00
2023-04-10T18:36:36.051Z,0.00
2023-04-10T18:37:36.030Z,0.00
2023-04-10T18:38:36.627Z,0.00
2023-04-10T18:39:36.026Z,0.00
2023-04-10T18:40:35.994Z,0.00
2023-04-10T18:41:36.000Z,0.00
2023-04-10T18:42:36.003Z,0.00
2023-04-10T18:43:35.964Z,0.00
2023-04-10T18:44:35.965Z,0.00
2023-04-10T18:45:35.936Z,0.00
2023-04-10T18:46:36.053Z,0.00
2023-04-10T18:47:36.022Z,0.00
2023-04-10T18:48:36.010Z,0.00
2023-04-10T18:49:35.946Z,0.00
2023-04-10T18:50:35.905Z,0.00
2023-04-10T18:51:35.898Z,0.00
2023-04-10T18:52:35.869Z,0.00
2023-04-10T18:53:35.967Z,0.00
2023-04-10T18:54:35.905Z,0.00
2023-04-10T18:55:35.889Z,0.00
2023-04-10T18:56:35.974Z,0.00
2023-04-10T18:57:35.813Z,0.00
2023-04-10T18:58:35.866Z,0.00
2023-04-10T18:59:35.814Z,0.00
2023-04-10T19:00:35.810Z,0.00
2023-04-10T19:01:35.869Z,0.00
2023-04-10T19:02:35.944Z,0.00
2023-04-10T19:03:36.019Z,0.00
2023-04-10T19:04:35.913Z,0.00
2023-04-10T19:05:35.742Z,0.00
2023-04-10T19:06:35.742Z,0.00
2023-04-10T19:07:35.726Z,0.00
2023-04-10T19:08:35.785Z,0.00
2023-04-10T19:09:35.711Z,0.00
2023-04-10T19:10:35.764Z,0.00
2023-04-10T19:11:36.596Z,0.00
2023-04-10T19:12:35.704Z,0.00
2023-04-10T19:13:35.687Z,0.00
2023-04-10T19:14:35.744Z,0.00
2023-04-10T19:15:35.688Z,0.00
2023-04-10T19:16:35.677Z,0.00
2023-04-10T19:17:35.622Z,0.00
2023-04-10T19:18:35.609Z,0.00
2023-04-10T19:19:35.640Z,0.00
2023-04-10T19:20:52.563Z,0.00
2023-04-10T19:21:35.583Z,0.00
2023-04-10T19:22:35.598Z,0.00
2023-04-10T19:23:35.521Z,0.00
2023-04-10T19:24:35.559Z,0.00
2023-04-10T19:25:35.554Z,0.00
2023-04-10T19:26:36.111Z,0.00
2023-04-10T19:27:35.464Z,0.00
2023-04-10T19:28:35.571Z,0.00
2023-04-10T19:29:35.503Z,0.00
2023-04-10T19:30:35.475Z,0.00
2023-04-10T19:31:35.497Z,0.00
2023-04-10T19:32:35.531Z,0.00
2023-04-10T19:33:35.457Z,0.00
2023-04-10T19:34:35.497Z,0.00
2023-04-10T19:35:35.443Z,0.00
2023-04-10T19:36:35.422Z,0.00
2023-04-10T19:37:35.396Z,0.00
2023-04-10T19:38:36.117Z,0.00
2023-04-10T19:39:35.430Z,0.00
2023-04-10T19:40:35.404Z,0.00
2023-04-10T19:41:35.342Z,0.00
2023-04-10T19:42:35.359Z,0.00
2023-04-10T19:43:35.399Z,0.00
2023-04-10T19:44:35.650Z,0.00
2023-04-10T19:45:35.327Z,0.00
2023-04-10T19:46:35.382Z,0.00
2023-04-10T19:47:35.319Z,0.00
2023-04-10T19:48:35.260Z,0.00
2023-04-10T19:49:35.268Z,0.00
2023-04-10T19:50:35.330Z,0.00
2023-04-10T19:51:35.204Z,0.00
2023-04-10T19:52:35.281Z,0.00
2023-04-10T19:53:35.194Z,0.00
2023-04-10T19:54:35.213Z,0.00
2023-04-10T19:55:35.156Z,0.00
2023-04-10T19:56:35.216Z,0.00
2023-04-10T19:57:35.161Z,0.00
2023-04-10T19:58:40.389Z,0.00
2023-04-10T19:59:35.138Z,0.00
2023-04-10T20:00:35.134Z,0.00
2023-04-10T20:01:35.127Z,0.00
2023-04-10T20:02:35.255Z,0.00
2023-04-10T20:03:35.214Z,0.00
2023-04-10T20:04:35.205Z,0.00
2023-04-10T20:05:35.172Z,0.00
2023-04-10T20:06:35.060Z,0.00
2023-04-10T20:07:35.044Z,0.00
2023-04-10T20:08:35.075Z,0.00
2023-04-10T20:09:35.041Z,0.00
2023-04-10T20:10:35.053Z,0.00
2023-04-10T20:11:34.991Z,0.00
2023-04-10T20:12:34.976Z,0.00
2023-04-10T20:13:35.188Z,0.00
2023-04-10T20:14:34.967Z,0.00
2023-04-10T20:15:35.005Z,0.00
2023-04-10T20:16:35.096Z,0.00
2023-04-10T20:17:35.074Z,0.00
2023-04-10T20:18:34.953Z,0.00
2023-04-10T20:19:34.923Z,0.00
2023-04-10T20:20:34.995Z,0.00
2023-04-10T20:21:34.861Z,0.00
2023-04-10T20:22:34.899Z,0.00
2023-04-10T20:23:34.842Z,0.00
2023-04-10T20:24:34.947Z,0.00
2023-04-10T20:25:34.865Z,0.00
2023-04-10T20:26:34.842Z,0.00
2023-04-10T20:27:34.789Z,0.00
2023-04-10T20:28:34.823Z,0.00
2023-04-10T20:29:34.824Z,0.00
2023-04-10T20:30:34.800Z,0.00
2023-04-10T20:31:34.943Z,0.00
2023-04-10T20:32:34.787Z,0.00
2023-04-10T20:33:34.749Z,0.00
2023-04-10T20:34:34.759Z,0.00
2023-04-10T20:35:34.762Z,0.00
2023-04-10T20:36:34.696Z,0.00
2023-04-10T20:37:34.805Z,0.00
2023-04-10T20:38:34.699Z,0.00
2023-04-10T20:39:34.690Z,0.00
2023-04-10T20:40:34.714Z,0.00
2023-04-10T20:41:34.722Z,0.00
2023-04-10T20:42:34.649Z,0.00
2023-04-10T20:43:34.596Z,0.00
2023-04-10T20:44:34.676Z,0.00
2023-04-10T20:45:34.632Z,0.00
2023-04-10T20:46:34.629Z,0.00
2023-04-10T20:47:34.635Z,0.00
2023-04-10T20:48:34.649Z,0.00
2023-04-10T20:49:34.563Z,0.00
2023-04-10T20:50:34.592Z,0.00
2023-04-10T20:51:34.524Z,0.00
2023-04-10T20:52:34.546Z,0.00
2023-04-10T20:53:34.501Z,0.00
2023-04-10T20:54:34.537Z,0.00
2023-04-10T20:55:34.514Z,0.00
2023-04-10T20:56:42.693Z,0.00
2023-04-10T20:57:34.464Z,0.00
2023-04-10T20:58:34.487Z,0.00
2023-04-10T20:59:34.441Z,0.00
2023-04-10T21:00:34.545Z,0.00
2023-04-10T21:01:34.661Z,0.00
2023-04-10T21:02:34.571Z,0.00
2023-04-10T21:03:34.505Z,0.00
2023-04-10T21:04:34.462Z,0.00
2023-04-10T21:05:34.401Z,0.00
2023-04-10T21:06:35.072Z,0.00
2023-04-10T21:07:34.395Z,0.00
2023-04-10T21:08:34.357Z,0.00
2023-04-10T21:09:34.400Z,0.00
2023-04-10T21:10:34.379Z,0.00
2023-04-10T21:11:34.305Z,0.00
2023-04-10T21:12:34.416Z,0.00
2023-04-10T21:13:36.019Z,0.00
2023-04-10T21:14:34.287Z,0.00
2023-04-10T21:15:34.321Z,0.00
2023-04-10T21:16:34.270Z,0.00
2023-04-10T21:17:34.343Z,0.00
2023-04-10T21:18:34.239Z,0.00
2023-04-10T21:19:34.295Z,0.00
2023-04-10T21:20:35.127Z,0.00
2023-04-10T21:21:34.175Z,0.00
2023-04-10T21:22:34.209Z,0.00
2023-04-10T21:23:34.173Z,0.00
2023-04-10T21:24:34.221Z,0.00
2023-04-10T21:25:34.167Z,0.00
2023-04-10T21:26:34.157Z,0.00
2023-04-10T21:27:34.143Z,0.00
2023-04-10T21:28:34.113Z,0.00
2023-04-10T21:29:34.113Z,0.00
2023-04-10T21:30:34.111Z,0.00
2023-04-10T21:31:34.093Z,0.00
2023-04-10T21:32:34.125Z,0.00
2023-04-10T21:33:34.053Z,0.00
2023-04-10T21:34:34.044Z,0.00
2023-04-10T21:35:34.105Z,0.00
2023-04-10T21:36:34.056Z,0.00
2023-04-10T21:37:34.044Z,0.00
2023-04-10T21:38:33.997Z,0.00
2023-04-10T21:39:33.957Z,0.00
2023-04-10T21:40:34.069Z,0.00
2023-04-10T21:41:33.963Z,0.00
2023-04-10T21:42:33.955Z,0.00
2023-04-10T21:43:33.949Z,0.00
2023-04-10T21:44:33.921Z,0.00
2023-04-10T21:45:34.047Z,0.00
2023-04-10T21:46:33.989Z,0.00
2023-04-10T21:47:33.891Z,0.00
2023-04-10T21:48:33.917Z,0.00
2023-04-10T21:49:33.863Z,0.00
2023-04-10T21:50:33.902Z,0.00
2023-04-10T21:51:33.874Z,0.00
2023-04-10T21:52:33.848Z,0.00
2023-04-10T21:53:33.905Z,0.00
2023-04-10T21:54:33.821Z,0.00
2023-04-10T21:55:33.841Z,0.00
2023-04-10T21:56:33.813Z,0.00
2023-04-10T21:57:33.789Z,0.00
2023-04-10T21:58:33.793Z,0.00
2023-04-10T21:59:33.778Z,0.00
2023-04-10T22:00:33.792Z,0.00
2023-04-10T22:01:33.832Z,0.00
2023-04-10T22:02:33.865Z,0.00
2023-04-10T22:03:33.802Z,0.00
2023-04-10T22:04:34.671Z,0.00
2023-04-10T22:05:33.774Z,0.00
2023-04-10T22:06:33.701Z,0.00
2023-04-10T22:07:33.692Z,0.00
2023-04-10T22:08:33.733Z,0.00
2023-04-10T22:09:33.632Z,0.00
2023-04-10T22:10:33.718Z,0.00
2023-04-10T22:11:33.636Z,0.00
2023-04-10T22:12:33.683Z,0.00
2023-04-10T22:13:33.672Z,0.00
2023-04-10T22:14:33.575Z,0.00
2023-04-10T22:15:33.645Z,0.00
2023-04-10T22:16:33.628Z,0.00
2023-04-10T22:17:33.683Z,0.00
2023-04-10T22:18:33.531Z,0.00
2023-04-10T22:19:33.510Z,0.00
2023-04-10T22:20:33.696Z,0.00
2023-04-10T22:21:33.511Z,0.00
2023-04-10T22:22:33.551Z,0.00
2023-04-10T22:23:33.553Z,0.00
2023-04-10T22:24:35.253Z,0.00
2023-04-10T22:25:34.956Z,0.00
2023-04-10T22:26:33.474Z,0.00
2023-04-10T22:27:33.456Z,0.00
2023-04-10T22:28:33.448Z,0.00
2023-04-10T22:29:33.434Z,0.00
2023-04-10T22:30:33.476Z,0.00
2023-04-10T22:31:33.394Z,0.00
2023-04-10T22:32:33.409Z,0.00
2023-04-10T22:33:33.464Z,0.00
2023-04-10T22:34:33.339Z,0.00
2023-04-10T22:35:34.203Z,0.00